地図

経路データ

SID SEASON NUMBER BASIN SUBBASIN NAME ISO_TIME NATURE LAT LON WMO_WIND WMO_PRES WMO_AGENCY TRACK_TYPE DIST2LAND LANDFALL IFLAG USA_AGENCY USA_ATCF_ID USA_LAT USA_LON USA_RECORD USA_STATUS USA_WIND USA_PRES USA_SSHS USA_R34_NE USA_R34_SE USA_R34_SW USA_R34_NW USA_R50_NE USA_R50_SE USA_R50_SW USA_R50_NW USA_R64_NE USA_R64_SE USA_R64_SW USA_R64_NW USA_POCI USA_ROCI USA_RMW USA_EYE TOKYO_LAT TOKYO_LON TOKYO_GRADE TOKYO_WIND TOKYO_PRES TOKYO_R50_DIR TOKYO_R50_LONG TOKYO_R50_SHORT TOKYO_R30_DIR TOKYO_R30_LONG TOKYO_R30_SHORT TOKYO_LAND CMA_LAT CMA_LON CMA_CAT CMA_WIND CMA_PRES HKO_LAT HKO_LON HKO_CAT HKO_WIND HKO_PRES NEWDELHI_LAT NEWDELHI_LON NEWDELHI_GRADE NEWDELHI_WIND NEWDELHI_PRES NEWDELHI_CI NEWDELHI_DP NEWDELHI_POCI REUNION_LAT REUNION_LON REUNION_TYPE REUNION_WIND REUNION_PRES REUNION_TNUM REUNION_CI REUNION_RMW REUNION_R34_NE REUNION_R34_SE REUNION_R34_SW REUNION_R34_NW REUNION_R50_NE REUNION_R50_SE REUNION_R50_SW REUNION_R50_NW REUNION_R64_NE REUNION_R64_SE REUNION_R64_SW REUNION_R64_NW BOM_LAT BOM_LON BOM_TYPE BOM_WIND BOM_PRES BOM_TNUM BOM_CI BOM_RMW BOM_R34_NE BOM_R34_SE BOM_R34_SW BOM_R34_NW BOM_R50_NE BOM_R50_SE BOM_R50_SW BOM_R50_NW BOM_R64_NE BOM_R64_SE BOM_R64_SW BOM_R64_NW BOM_ROCI BOM_POCI BOM_EYE BOM_POS_METHOD BOM_PRES_METHOD NADI_LAT NADI_LON NADI_CAT NADI_WIND NADI_PRES WELLINGTON_LAT WELLINGTON_LON WELLINGTON_WIND WELLINGTON_PRES DS824_LAT DS824_LON DS824_STAGE DS824_WIND DS824_PRES TD9636_LAT TD9636_LON TD9636_STAGE TD9636_WIND TD9636_PRES TD9635_LAT TD9635_LON TD9635_WIND TD9635_PRES TD9635_ROCI NEUMANN_LAT NEUMANN_LON NEUMANN_CLASS NEUMANN_WIND NEUMANN_PRES MLC_LAT MLC_LON MLC_CLASS MLC_WIND MLC_PRES USA_GUST BOM_GUST BOM_GUST_PER REUNION_GUST REUNION_GUST_PER USA_SEAHGT USA_SEARAD_NE USA_SEARAD_SE USA_SEARAD_SW USA_SEARAD_NW STORM_SPEED STORM_DIR
2020053S13138 2020 14 SP EA ESTHER 2020-02-22 06:00:00 TS -13.2000 138.000 main 136 131 O_____________ jtwc_sh SH192020 -13.2000 138.000 TD 25 1004 -1 1002 155 30 3 146
2020053S13138 2020 14 SP EA ESTHER 2020-02-22 09:00:00 TS -13.3275 138.095 main 141 137 P_____________ SH192020 -13.3275 138.095 TD 25 1004 -1 1002 155 30 4 147
2020053S13138 2020 14 SP EA ESTHER 2020-02-22 12:00:00 TS -13.5000 138.200 main 144 142 O_____________ jtwc_sh SH192020 -13.5000 138.200 TD 25 1004 -1 1002 155 30 5 151
2020053S13138 2020 14 SP EA ESTHER 2020-02-22 15:00:00 TS -13.7425 138.328 main 151 151 P_____________ SH192020 -13.7425 138.328 TD 25 1004 -1 1002 155 30 6 150
2020053S13138 2020 14 SP EA ESTHER 2020-02-22 18:00:00 TS -14.0000 138.500 main 165 165 O_____________ jtwc_sh SH192020 -14.0000 138.500 TD 25 1004 -1 1002 155 30 6 138
2020053S13138 2020 14 SP EA ESTHER 2020-02-22 21:00:00 TS -14.2076 138.757 main 194 194 P_____________ SH192020 -14.2076 138.757 TD 27 1002 -1 1004 175 42 6 130
2020053S13138 2020 14 SP EA ESTHER 2020-02-23 00:00:00 TS -14.4000 139.000 main 215 215 O_____________ jtwc_sh SH192020 -14.4000 139.000 TD 30 1001 -1 1006 195 55 5 136
2020053S13138 2020 14 SP EA ESTHER 2020-02-23 03:00:00 TS -14.5850 139.130 main 228 224 P_____________ SH192020 -14.5850 139.130 TD 30 1000 -1 1006 195 50 4 154
2020053S13138 2020 14 SP EA ESTHER 2020-02-23 06:00:00 TS -14.8000 139.200 main 224 204 O_____________ jtwc_sh SH192020 -14.8000 139.200 TD 30 1000 -1 1006 195 45 5 164
2020053S13138 2020 14 SP EA ESTHER 2020-02-23 09:00:00 TS -15.0775 139.272 main 204 170 P_____________ SH192020 -15.0775 139.272 TD 32 998 -1 1004 205 45 6 171
2020053S13138 2020 14 SP EA ESTHER 2020-02-23 12:00:00 TS -15.4000 139.300 main 170 138 O_____________ jtwc_sh SH192020 -15.4000 139.300 TS 35 996 0 75 110 110 75 1003 215 45 7 176
2020053S13138 2020 14 SP EA ESTHER 2020-02-23 15:00:00 TS -15.7499 139.317 main 138 92 P_____________ SH192020 -15.7499 139.317 TS 37 995 0 85 110 82 67 1003 205 45 7 188
2020053S13138 2020 14 SP EA ESTHER 2020-02-23 18:00:00 TS -16.1000 139.200 main 92 55 O_____________ jtwc_sh SH192020 -16.1000 139.200 TS 40 995 0 95 110 55 60 1003 195 45 8 213
2020053S13138 2020 14 SP EA ESTHER 2020-02-23 21:00:00 TS -16.4527 138.838 main 39 11 P_____________ SH192020 -16.4527 138.838 TS 42 995 0 80 82 52 62 1004 187 37 10 232
2020053S13138 2020 14 SP EA ESTHER 2020-02-24 00:00:00 TS -16.7000 138.400 main 11 0 O_____________ jtwc_sh SH192020 -16.7000 138.400 TS 45 996 0 65 55 50 65 1005 180 30 8 249
2020053S13138 2020 14 SP EA ESTHER 2020-02-24 03:00:00 TS -16.7299 138.085 main 0 0 P_____________ SH192020 -16.7299 138.085 TS 47 994 0 87 72 60 70 1005 180 30 6 270
2020053S13138 2020 14 SP EA ESTHER 2020-02-24 06:00:00 TS -16.7000 137.800 main 0 0 O_____________ jtwc_sh SH192020 -16.7000 137.800 TS 50 992 0 110 90 70 75 50 50 50 50 1005 180 30 6 264
2020053S13138 2020 14 SP EA ESTHER 2020-02-24 09:00:00 TS -16.7924 137.508 main 0 0 P_____________ SH192020 -16.7924 137.508 TS 45 994 0 97 75 62 70 1005 180 30 6 251
2020053S13138 2020 14 SP EA ESTHER 2020-02-24 12:00:00 TS -16.9000 137.200 main 0 0 O_____________ jtwc_sh SH192020 -16.9000 137.200 TS 40 997 0 85 60 55 65 1005 180 30 6 256
2020053S13138 2020 14 SP EA ESTHER 2020-02-24 15:00:00 TS -16.9500 136.857 main 0 0 P_____________ SH192020 -16.9500 136.857 TS 35 998 0 42 30 27 32 1005 170 30 7 261
2020053S13138 2020 14 SP EA ESTHER 2020-02-24 18:00:00 TS -17.0000 136.500 main 0 0 O_____________ jtwc_sh SH192020 -17.0000 136.500 TD 30 1000 -1 1005 160 30 7 257
2020053S13138 2020 14 SP EA ESTHER 2020-02-24 21:00:00 TS -17.1074 136.158 main 0 0 P_____________ SH192020 -17.1074 136.158 TD 30 1000 -1 1005 155 30 7 253
2020053S13138 2020 14 SP EA ESTHER 2020-02-25 00:00:00 TS -17.2000 135.800 main 0 0 O_____________ jtwc_sh SH192020 -17.2000 135.800 TD 30 1000 -1 1005 150 30 7 261
2020053S13138 2020 14 SP EA ESTHER 2020-02-25 03:00:00 TS -17.2150 135.407 main 0 0 P_____________ SH192020 -17.2150 135.407 TD 30 999 -1 1004 205 30 8 270
2020053S13138 2020 14 SP EA ESTHER 2020-02-25 06:00:00 TS -17.2000 135.000 main 0 0 O_____________ jtwc_sh SH192020 -17.2000 135.000 TD 30 998 -1 1003 260 30 8 269
2020053S13138 2020 14 SI WA ESTHER 2020-02-25 09:00:00 TS -17.2225 134.578 main 0 0 P_____________ SH192020 -17.2225 134.578 TD 30 998 -1 1003 260 30 8 270
2020053S13138 2020 14 SI WA ESTHER 2020-02-25 12:00:00 TS -17.2000 134.200 main 0 0 O_____________ jtwc_sh SH192020 -17.2000 134.200 TD 30 999 -1 1003 260 30 6 283
2020053S13138 2020 14 SI WA ESTHER 2020-02-25 15:00:00 TS -17.0799 133.920 main 0 0 P_____________ SH192020 -17.0799 133.920 TD 30 998 -1 1003 247 30 6 302
2020053S13138 2020 14 SI WA ESTHER 2020-02-25 18:00:00 TS -16.9000 133.700 main 0 0 O_____________ jtwc_sh SH192020 -16.9000 133.700 TD 30 998 -1 1004 235 30 5 314
2020053S13138 2020 14 SI WA ESTHER 2020-02-25 21:00:00 TS -16.7074 133.515 main 0 0 P_____________ SH192020 -16.7074 133.515 TD 32 997 -1 1005 232 30 6 316
2020053S13138 2020 14 SI WA ESTHER 2020-02-26 00:00:00 TS -16.5000 133.300 main 0 0 O_____________ jtwc_sh SH192020 -16.5000 133.300 TS 35 997 0 40 45 45 40 1006 230 30 7 309
2020053S13138 2020 14 SI WA ESTHER 2020-02-26 03:00:00 TS -16.2850 132.972 main 0 0 P_____________ SH192020 -16.2850 132.972 TS 35 997 0 40 45 45 40 1004 220 30 8 301
2020053S13138 2020 14 SI WA ESTHER 2020-02-26 06:00:00 TS -16.1000 132.600 main 0 0 O_____________ jtwc_sh SH192020 -16.1000 132.600 TS 35 997 0 40 45 45 40 1002 210 30 8 294
2020053S13138 2020 14 SI WA ESTHER 2020-02-26 09:00:00 TS -15.9775 132.243 main 0 0 P_____________ SH192020 -15.9775 132.243 TS 35 996 0 42 45 45 42 1002 210 30 7 287
2020053S13138 2020 14 SI WA ESTHER 2020-02-26 12:00:00 TS -15.9000 131.900 main 0 0 O_____________ jtwc_sh SH192020 -15.9000 131.900 TS 35 996 0 45 45 45 45 1002 210 30 6 281
2020053S13138 2020 14 SI WA ESTHER 2020-02-26 15:00:00 TS -15.8574 131.608 main 0 0 P_____________ SH192020 -15.8574 131.608 TS 35 996 0 45 45 45 45 1003 215 30 6 280
2020053S13138 2020 14 SI WA ESTHER 2020-02-26 18:00:00 TS -15.8000 131.300 main 0 0 O_____________ jtwc_sh SH192020 -15.8000 131.300 TS 35 996 0 45 45 45 45 1004 220 30 7 286
2020053S13138 2020 14 SI WA ESTHER 2020-02-26 21:00:00 TS -15.6576 130.900 main 0 0 P_____________ SH192020 -15.6576 130.900 TS 35 996 0 45 45 45 45 1005 207 30 8 291
2020053S13138 2020 14 SI WA ESTHER 2020-02-27 00:00:00 TS -15.5000 130.500 main 0 0 O_____________ jtwc_sh SH192020 -15.5000 130.500 TS 35 996 0 45 45 45 45 1006 195 30 7 291
2020053S13138 2020 14 SI WA ESTHER 2020-02-27 03:00:00 TS -15.3849 130.178 main 0 0 P_____________ SH192020 -15.3849 130.178 TS 35 997 0 47 72 1006 195 30 6 289
2020053S13138 2020 14 SI WA ESTHER 2020-02-27 06:00:00 TS -15.3000 129.900 main 0 0 O_____________ jtwc_sh SH192020 -15.3000 129.900 TS 35 999 0 50 100 1006 195 30 5 286
2020053S13138 2020 14 SI WA ESTHER 2020-02-27 09:00:00 TS -15.2349 129.650 main 0 0 P_____________ SH192020 -15.2349 129.650 TS 35 999 0 42 107 1006 195 30 5 282
2020053S13138 2020 14 SI WA ESTHER 2020-02-27 12:00:00 TS -15.2000 129.400 main 0 0 O_____________ jtwc_sh SH192020 -15.2000 129.400 TS 35 999 0 35 115 1006 195 30 5 275
2020053S13138 2020 14 SI WA ESTHER 2020-02-27 15:00:00 TS -15.1850 129.100 main 0 0 P_____________ SH192020 -15.1850 129.100 TS 35 997 0 30 120 1005 195 30 6 270
2020053S13138 2020 14 SI WA ESTHER 2020-02-27 18:00:00 TS -15.2000 128.800 main 0 0 O_____________ jtwc_sh SH192020 -15.2000 128.800 TS 35 996 0 25 125 1004 195 30 5 264
2020053S13138 2020 14 SI WA ESTHER 2020-02-27 21:00:00 TS -15.2347 128.595 main 0 0 P_____________ SH192020 -15.2347 128.595 TS 35 996 0 52 110 1004 185 30 5 258
2020053S13138 2020 14 SI WA ESTHER 2020-02-28 00:00:00 TS -15.3000 128.300 main 0 0 O_____________ jtwc_sh SH192020 -15.3000 128.300 TS 35 996 0 80 95 1005 175 30 8 258
2020053S13138 2020 14 SI WA ESTHER 2020-02-28 03:00:00 TS -15.4000 127.768 main 0 0 P_____________ SH192020 -15.4000 127.768 TS 35 997 0 85 95 1005 175 30 12 260
2020053S13138 2020 14 SI WA ESTHER 2020-02-28 06:00:00 TS -15.5000 127.100 main 0 0 O_____________ jtwc_sh SH192020 -15.5000 127.100 TS 35 999 0 90 95 1005 175 30 14 264
2020053S13138 2020 14 SI WA ESTHER 2020-02-28 09:00:00 TS -15.5503 126.370 main 0 0 P_____________ SH192020 -15.5503 126.370 TS 35 999 0 95 1005 175 30 14 266
2020053S13138 2020 14 SI WA ESTHER 2020-02-28 12:00:00 TS -15.6000 125.700 main 0 0 O_____________ jtwc_sh SH192020 -15.6000 125.700 TS 35 999 0 95 1005 175 30 11 263
2020053S13138 2020 14 SI WA ESTHER 2020-02-28 15:00:00 TS -15.6772 125.240 main 0 0 P_____________ SH192020 -15.6772 125.240 TS 35 998 0 77 1004 180 30 8 255
2020053S13138 2020 14 SI WA ESTHER 2020-02-28 18:00:00 TS -15.8000 124.900 main 0 0 O_____________ jtwc_sh SH192020 -15.8000 124.900 TS 35 998 0 125 110 60 205 1004 185 30 7 246
2020053S13138 2020 14 SI WA ESTHER 2020-02-28 21:00:00 TS -15.9699 124.570 main 0 0 P_____________ SH192020 -15.9699 124.570 TS 32 999 -1 1004 185 30 7 235
2020053S13138 2020 14 SI WA ESTHER 2020-02-29 00:00:00 TS -16.2000 124.300 main 10 0 O_____________ jtwc_sh SH192020 -16.2000 124.300 TD 30 1000 -1 1004 185 30 7 222
2020053S13138 2020 14 SI WA ESTHER 2020-02-29 03:00:00 TS -16.4925 124.077 main 0 0 P_____________ SH192020 -16.4925 124.077 TD 30 998 -1 1003 172 27 7 213
2020053S13138 2020 14 SI WA ESTHER 2020-02-29 06:00:00 TS -16.8000 123.900 main 0 0 O_____________ jtwc_sh SH192020 -16.8000 123.900 TD 30 996 -1 1002 160 25 7 213
2020053S13138 2020 14 SI WA ESTHER 2020-02-29 09:00:00 TS -17.0350 123.705 main 10 0 P_____________ SH192020 -17.0350 123.705 TD 27 998 -1 1002 160 25 6 210
2020053S13138 2020 14 SI WA ESTHER 2020-02-29 12:00:00 TS -17.3000 123.600 main 0 0 O_____________ jtwc_sh SH192020 -17.3000 123.600 TD 25 1000 -1 1002 160 25 7 184
2020053S13138 2020 14 SI WA ESTHER 2020-02-29 15:00:00 TS -17.7300 123.655 main 0 0 P_____________ SH192020 -17.7300 123.655 TD 25 1000 -1 1002 160 25 8 167
2020053S13138 2020 14 SI WA ESTHER 2020-02-29 18:00:00 TS -18.1000 123.800 main 0 0 O_____________ jtwc_sh SH192020 -18.1000 123.800 TD 25 1000 -1 1002 160 25 6 150
2020053S13138 2020 14 SI WA ESTHER 2020-02-29 21:00:00 TS -18.2100 123.943 main 0 0 P_____________ SH192020 -18.2100 123.943 TD 25 1000 -1 1003 165 25 3 109
2020053S13138 2020 14 SI WA ESTHER 2020-03-01 00:00:00 TS -18.2000 124.100 main 0 0 O_____________ jtwc_sh SH192020 -18.2000 124.100 TD 25 1001 -1 1004 170 25 3 87
2020053S13138 2020 14 SI WA ESTHER 2020-03-01 03:00:00 TS -18.1925 124.252 main 0 0 P_____________ SH192020 -18.1925 124.252 TD 20 1002 -1 1004 165 25 3 90
2020053S13138 2020 14 SI WA ESTHER 2020-03-01 06:00:00 NR -18.2000 124.400 main 0 O_____________ jtwc_sh SH192020 -18.2000 124.400 DB 15 1004 -3 1004 160 25 3 93

デジタル台風データ・検索

IBTrACS Databaseについて

本データベースは、米国NOAAが公開する1842年以降の世界の熱帯低気圧のベストトラックデータアーカイブInternational Best Track Archive for Climate Stewardship (IBTrACS)を、ウェブで閲覧しやすい形式に変換したものです。

最終更新日:2022-08-18